createdAt,value
2018-05-24T00:00:32.692Z,81.66
2018-05-24T00:01:32.376Z,81.66
2018-05-24T00:02:32.351Z,81.41
2018-05-24T00:03:32.351Z,81.15
2018-05-24T00:04:32.357Z,81.23
2018-05-24T00:05:32.370Z,81.25
2018-05-24T00:06:32.343Z,81.83
2018-05-24T00:07:32.352Z,81.33
2018-05-24T00:08:32.396Z,81.27
2018-05-24T00:09:32.351Z,81.5
2018-05-24T00:10:32.355Z,81.39
2018-05-24T00:11:32.341Z,81.84
2018-05-24T00:12:32.388Z,81.59
2018-05-24T00:13:32.389Z,82.16
2018-05-24T00:14:32.361Z,82.05
2018-05-24T00:15:32.350Z,81.44
2018-05-24T00:16:32.352Z,81.39
2018-05-24T00:17:32.374Z,81.93
2018-05-24T00:18:32.445Z,81.12
2018-05-24T00:19:32.367Z,81.42
2018-05-24T00:20:32.367Z,81.75
2018-05-24T00:21:32.374Z,81.67
2018-05-24T00:22:32.746Z,81.87
2018-05-24T00:23:32.386Z,81.46
2018-05-24T00:24:32.403Z,81.88
2018-05-24T00:25:32.359Z,81.81
2018-05-24T00:26:32.364Z,82
2018-05-24T00:27:32.369Z,81.63
2018-05-24T00:28:32.374Z,81.59
2018-05-24T00:29:32.370Z,81.34
2018-05-24T00:30:32.541Z,81.44
2018-05-24T00:31:32.418Z,81.66
2018-05-24T00:32:32.609Z,81.45
2018-05-24T00:33:32.384Z,81.94
2018-05-24T00:34:32.375Z,82.04
2018-05-24T00:35:32.370Z,82.27
2018-05-24T00:36:32.383Z,82.15
2018-05-24T00:37:32.396Z,81.73
2018-05-24T00:38:32.371Z,81.3
2018-05-24T00:39:32.378Z,81.6
2018-05-24T00:40:32.383Z,81.81
2018-05-24T00:41:32.402Z,81.59
2018-05-24T00:42:32.375Z,81.3
2018-05-24T00:43:32.372Z,81.18
2018-05-24T00:44:32.378Z,80.97
2018-05-24T00:45:32.428Z,81.09
2018-05-24T00:46:32.442Z,81.31
2018-05-24T00:47:32.348Z,81.52
2018-05-24T00:48:32.371Z,80.99
2018-05-24T00:49:32.370Z,80.91
2018-05-24T00:50:32.377Z,81.13
2018-05-24T00:51:32.381Z,81.63
2018-05-24T00:52:32.511Z,81.35
2018-05-24T00:53:32.449Z,81.3
2018-05-24T00:54:32.715Z,81.86
2018-05-24T00:55:32.430Z,81.52
2018-05-24T00:56:32.409Z,81.49
2018-05-24T00:57:32.392Z,81.47
2018-05-24T00:58:32.445Z,81.34
2018-05-24T00:59:32.425Z,81.36
2018-05-24T01:00:32.375Z,81.6
2018-05-24T01:01:32.405Z,81.52
2018-05-24T01:02:32.409Z,80.86
2018-05-24T01:03:32.824Z,80.78
2018-05-24T01:04:32.367Z,80.94
2018-05-24T01:05:32.381Z,80.85
2018-05-24T01:06:32.387Z,80.77
2018-05-24T01:07:32.389Z,80.88
2018-05-24T01:08:32.400Z,81.34
2018-05-24T01:09:32.642Z,81.67
2018-05-24T01:10:32.390Z,81.83
2018-05-24T01:11:32.407Z,81.97
2018-05-24T01:12:32.383Z,81.43
2018-05-24T01:13:32.976Z,81.6
2018-05-24T01:14:32.392Z,81.84
2018-05-24T01:15:32.404Z,81.93
2018-05-24T01:16:32.403Z,81.43
2018-05-24T01:17:32.420Z,81.26
2018-05-24T01:18:32.471Z,81.47
2018-05-24T01:19:32.388Z,81.06
2018-05-24T01:20:32.396Z,81.08
2018-05-24T01:21:32.389Z,81.11
2018-05-24T01:22:32.388Z,81.16
2018-05-24T01:23:32.972Z,81.32
2018-05-24T01:24:32.439Z,81.28
2018-05-24T01:25:32.411Z,81.05
2018-05-24T01:26:32.434Z,81.07
2018-05-24T01:27:32.432Z,81.09
2018-05-24T01:28:32.393Z,81.04
2018-05-24T01:29:32.484Z,81.41
2018-05-24T01:30:32.535Z,81.36
2018-05-24T01:31:32.414Z,81.16
2018-05-24T01:32:32.415Z,81.06
2018-05-24T01:33:32.421Z,81.17
2018-05-24T01:34:32.406Z,80.99
2018-05-24T01:35:32.425Z,81.6
2018-05-24T01:36:32.410Z,81.86
2018-05-24T01:37:32.514Z,81.61
2018-05-24T01:38:32.469Z,81.57
2018-05-24T01:39:32.429Z,81.77
2018-05-24T01:40:32.413Z,81.93
2018-05-24T01:41:32.534Z,82.01
2018-05-24T01:42:32.414Z,82.19
2018-05-24T01:43:32.422Z,82.18
2018-05-24T01:44:32.427Z,81.95
2018-05-24T01:45:32.417Z,81.83
2018-05-24T01:46:32.446Z,81.92
2018-05-24T01:47:32.527Z,81.9
2018-05-24T01:48:32.426Z,81.31
2018-05-24T01:49:32.474Z,82.13
2018-05-24T01:50:32.437Z,82.22
2018-05-24T01:51:32.421Z,82.35
2018-05-24T01:52:32.429Z,82.42
2018-05-24T01:53:32.424Z,82.04
2018-05-24T01:54:32.458Z,82.53
2018-05-24T01:55:32.418Z,82.17
2018-05-24T01:56:32.425Z,81.94
2018-05-24T01:57:32.450Z,82.28
2018-05-24T01:58:32.488Z,82.12
2018-05-24T01:59:32.443Z,81.91
2018-05-24T02:00:32.493Z,82.01
2018-05-24T02:01:32.468Z,82.03
2018-05-24T02:02:32.467Z,82.22
2018-05-24T02:03:32.428Z,82.05
2018-05-24T02:04:32.427Z,81.94
2018-05-24T02:05:32.489Z,81.93
2018-05-24T02:06:32.433Z,81.99
2018-05-24T02:07:32.594Z,82.09
2018-05-24T02:08:32.421Z,82.08
2018-05-24T02:09:32.455Z,82.16
2018-05-24T02:10:32.446Z,82.25
2018-05-24T02:11:32.422Z,81.95
2018-05-24T02:12:32.593Z,82.01
2018-05-24T02:13:32.431Z,82.01
2018-05-24T02:14:32.430Z,81.86
2018-05-24T02:15:32.419Z,81.88
2018-05-24T02:16:32.451Z,81.88
2018-05-24T02:17:32.435Z,81.96
2018-05-24T02:18:32.409Z,81.98
2018-05-24T02:19:32.423Z,81.89
2018-05-24T02:20:32.456Z,81.95
2018-05-24T02:21:32.434Z,82.04
2018-05-24T02:22:32.450Z,81.93
2018-05-24T02:23:32.442Z,81.65
2018-05-24T02:24:32.457Z,81.42
2018-05-24T02:25:32.462Z,81.83
2018-05-24T02:26:32.440Z,81.91
2018-05-24T02:27:32.451Z,81.68
2018-05-24T02:28:32.451Z,81.95
2018-05-24T02:29:32.421Z,81.67
2018-05-24T02:30:32.473Z,81.61
2018-05-24T02:31:32.467Z,81.7
2018-05-24T02:32:32.458Z,81.49
2018-05-24T02:33:32.433Z,81.46
2018-05-24T02:34:32.441Z,81.38
2018-05-24T02:35:32.440Z,81.37
2018-05-24T02:36:32.437Z,81.45
2018-05-24T02:37:32.464Z,81.32
2018-05-24T02:38:32.449Z,81.46
2018-05-24T02:39:32.481Z,81.8
2018-05-24T02:40:32.463Z,81.57
2018-05-24T02:41:32.456Z,81.97
2018-05-24T02:42:32.474Z,81.67
2018-05-24T02:43:32.556Z,81.72
2018-05-24T02:44:32.481Z,81.49
2018-05-24T02:45:32.488Z,81.97
2018-05-24T02:46:32.499Z,81.96
2018-05-24T02:47:32.526Z,81.61
2018-05-24T02:48:32.484Z,81.58
2018-05-24T02:49:32.514Z,81.57
2018-05-24T02:50:32.510Z,81.71
2018-05-24T02:51:32.460Z,81.58
2018-05-24T02:52:32.514Z,81.58
2018-05-24T02:53:32.454Z,81.51
2018-05-24T02:54:32.480Z,81.82
2018-05-24T02:55:32.674Z,81.78
2018-05-24T02:56:32.519Z,81.97
2018-05-24T02:57:32.502Z,82
2018-05-24T02:58:32.477Z,81.7
2018-05-24T02:59:32.494Z,81.9
2018-05-24T03:00:32.644Z,82.35
2018-05-24T03:01:32.481Z,82.59
2018-05-24T03:02:32.437Z,82.5
2018-05-24T03:03:32.610Z,82.37
2018-05-24T03:04:32.459Z,82.44
2018-05-24T03:05:32.466Z,82.81
2018-05-24T03:06:32.470Z,82.19
2018-05-24T03:07:32.491Z,82.5
2018-05-24T03:08:32.493Z,82.14
2018-05-24T03:09:32.461Z,82.65
2018-05-24T03:10:32.897Z,83.15
2018-05-24T03:11:32.532Z,82.85
2018-05-24T03:12:32.489Z,82.45
2018-05-24T03:13:32.482Z,82.45
2018-05-24T03:14:32.498Z,82.67
2018-05-24T03:15:32.544Z,82.69
2018-05-24T03:16:32.458Z,82.65
2018-05-24T03:17:32.479Z,82.76
2018-05-24T03:18:32.495Z,82.24
2018-05-24T03:19:32.481Z,82.39
2018-05-24T03:20:32.480Z,82.28
2018-05-24T03:21:32.498Z,82.24
2018-05-24T03:22:32.490Z,82.83
2018-05-24T03:23:32.445Z,82.18
2018-05-24T03:24:32.460Z,82.57
2018-05-24T03:25:32.489Z,82.24
2018-05-24T03:26:32.468Z,82.38
2018-05-24T03:27:32.489Z,82.55
2018-05-24T03:28:32.467Z,82.82
2018-05-24T03:29:32.463Z,82.51
2018-05-24T03:30:32.490Z,82.28
2018-05-24T03:31:32.509Z,82.2
2018-05-24T03:32:32.479Z,82.55
2018-05-24T03:33:32.516Z,82.65
2018-05-24T03:34:32.508Z,83.13
2018-05-24T03:35:32.493Z,83.38
2018-05-24T03:36:32.484Z,82.96
2018-05-24T03:37:32.513Z,83.31
2018-05-24T03:38:32.486Z,83.34
2018-05-24T03:39:32.460Z,83.37
2018-05-24T03:40:32.467Z,83.19
2018-05-24T03:41:32.483Z,82.76
2018-05-24T03:42:32.471Z,82.63
2018-05-24T03:43:32.505Z,83.03
2018-05-24T03:44:32.516Z,83.02
2018-05-24T03:45:32.516Z,82.85
2018-05-24T03:46:32.507Z,82.79
2018-05-24T03:47:32.484Z,83.01
2018-05-24T03:48:32.590Z,83.17
2018-05-24T03:49:32.508Z,83.13
2018-05-24T03:50:32.503Z,83.37
2018-05-24T03:51:32.509Z,83.38
2018-05-24T03:52:32.478Z,82.87
2018-05-24T03:53:33.098Z,83.53
2018-05-24T03:54:32.485Z,83.63
2018-05-24T03:55:32.470Z,83.44
2018-05-24T03:56:33.034Z,83.09
2018-05-24T03:57:32.582Z,83.35
2018-05-24T03:58:32.582Z,83.5
2018-05-24T03:59:32.486Z,83.51
2018-05-24T04:00:32.509Z,83.4
2018-05-24T04:01:32.490Z,82.97
2018-05-24T04:02:32.518Z,82.92
2018-05-24T04:03:32.522Z,83.18
2018-05-24T04:04:32.522Z,82.99
2018-05-24T04:05:32.508Z,83.31
2018-05-24T04:06:32.533Z,83.53
2018-05-24T04:07:32.509Z,83.38
2018-05-24T04:08:32.963Z,83.15
2018-05-24T04:09:32.505Z,83.66
2018-05-24T04:10:32.543Z,83.56
2018-05-24T04:11:32.551Z,83.28
2018-05-24T04:12:32.510Z,83.22
2018-05-24T04:13:32.519Z,82.98
2018-05-24T04:14:32.497Z,83.33
2018-05-24T04:15:32.554Z,83.29
2018-05-24T04:16:32.502Z,83.38
2018-05-24T04:17:32.516Z,83.95
2018-05-24T04:18:32.538Z,83.92
2018-05-24T04:19:33.024Z,83.34
2018-05-24T04:20:32.525Z,83.43
2018-05-24T04:21:32.534Z,83.39
2018-05-24T04:22:32.551Z,83.41
2018-05-24T04:23:32.532Z,83.83
2018-05-24T04:24:32.518Z,83.5
2018-05-24T04:25:32.544Z,83.61
2018-05-24T04:26:32.492Z,83.75
2018-05-24T04:27:32.569Z,83.96
2018-05-24T04:28:32.519Z,83.54
2018-05-24T04:29:32.536Z,83.51
2018-05-24T04:30:32.523Z,83.75
2018-05-24T04:31:32.493Z,83.19
2018-05-24T04:32:32.489Z,83.62
2018-05-24T04:33:32.534Z,83.59
2018-05-24T04:34:32.506Z,83.58
2018-05-24T04:35:32.560Z,83.76
2018-05-24T04:36:32.502Z,83.77
2018-05-24T04:37:32.508Z,84.2
2018-05-24T04:38:32.512Z,83.87
2018-05-24T04:39:32.539Z,84.24
2018-05-24T04:40:32.514Z,83.8
2018-05-24T04:41:32.507Z,84.26
2018-05-24T04:42:32.509Z,84.27
2018-05-24T04:43:32.503Z,83.79
2018-05-24T04:44:32.493Z,83.83
2018-05-24T04:45:32.973Z,83.59
2018-05-24T04:46:32.541Z,84.28
2018-05-24T04:47:32.535Z,84.13
2018-05-24T04:48:32.549Z,84.08
2018-05-24T04:49:32.515Z,84.36
2018-05-24T04:50:32.525Z,83.92
2018-05-24T04:51:32.540Z,84.07
2018-05-24T04:52:32.512Z,83.61
2018-05-24T04:53:32.518Z,84.12
2018-05-24T04:54:32.887Z,84.17
2018-05-24T04:55:32.679Z,83.98
2018-05-24T04:56:32.620Z,83.66
2018-05-24T04:57:32.598Z,83.61
2018-05-24T04:58:32.534Z,83.91
2018-05-24T04:59:32.912Z,83.81
2018-05-24T05:00:32.572Z,83.58
2018-05-24T05:01:32.686Z,83.42
2018-05-24T05:02:32.555Z,83.83
2018-05-24T05:03:32.574Z,84.49
2018-05-24T05:04:32.602Z,83.88
2018-05-24T05:05:32.579Z,83.61
2018-05-24T05:06:32.594Z,83.56
2018-05-24T05:07:32.540Z,84.22
2018-05-24T05:08:32.556Z,84.66
2018-05-24T05:09:32.531Z,84.92
2018-05-24T05:10:32.839Z,84.6
2018-05-24T05:11:32.570Z,84.53
2018-05-24T05:12:32.590Z,84
2018-05-24T05:13:33.416Z,83.95
2018-05-24T05:14:32.801Z,83.91
2018-05-24T05:15:32.562Z,84.08
2018-05-24T05:16:32.910Z,84.61
2018-05-24T05:17:32.627Z,84.57
2018-05-24T05:18:32.569Z,84.35
2018-05-24T05:19:32.731Z,84.82
2018-05-24T05:20:32.552Z,84.3
2018-05-24T05:21:32.573Z,84.12
2018-05-24T05:22:32.570Z,84.54
2018-05-24T05:23:32.722Z,84.27
2018-05-24T05:24:32.626Z,84.28
2018-05-24T05:25:32.554Z,84.7
2018-05-24T05:26:32.559Z,84.15
2018-05-24T05:27:33.212Z,84.26
2018-05-24T05:28:32.584Z,84.4
2018-05-24T05:29:32.591Z,85.19
2018-05-24T05:30:32.847Z,84.86
2018-05-24T05:31:32.675Z,84.54
2018-05-24T05:32:32.622Z,84.26
2018-05-24T05:33:32.559Z,83.99
2018-05-24T05:34:32.641Z,84.7
2018-05-24T05:35:32.559Z,84.35
2018-05-24T05:36:32.637Z,84.13
2018-05-24T05:37:32.957Z,84.23
2018-05-24T05:38:32.581Z,84.06
2018-05-24T05:39:32.570Z,84.12
2018-05-24T05:40:33.043Z,83.91
2018-05-24T05:41:32.603Z,84.07
2018-05-24T05:42:32.597Z,84.04
2018-05-24T05:43:32.568Z,84.99
2018-05-24T05:44:32.569Z,85.17
2018-05-24T05:45:32.574Z,84.95
2018-05-24T05:46:32.530Z,85.31
2018-05-24T05:47:32.631Z,85.4
2018-05-24T05:48:32.570Z,84.8
2018-05-24T05:49:32.591Z,85.52
2018-05-24T05:50:32.539Z,85.48
2018-05-24T05:51:32.549Z,85.21
2018-05-24T05:52:32.607Z,85.18
2018-05-24T05:53:32.570Z,85.64
2018-05-24T05:54:33.294Z,85.42
2018-05-24T05:55:33.308Z,85.26
2018-05-24T05:56:33.315Z,85.38
2018-05-24T05:57:33.316Z,85.59
2018-05-24T05:58:33.319Z,85.53
2018-05-24T05:59:33.268Z,85.37
2018-05-24T06:00:33.260Z,85.64
2018-05-24T06:01:33.618Z,85.32
2018-05-24T06:02:33.300Z,85.65
2018-05-24T06:03:33.256Z,85.37
2018-05-24T06:04:33.299Z,85.1
2018-05-24T06:05:33.312Z,84.88
2018-05-24T06:06:33.306Z,84.99
2018-05-24T06:07:33.319Z,84.96
2018-05-24T06:08:33.336Z,84.79
2018-05-24T06:09:33.531Z,84.7
2018-05-24T06:10:33.319Z,85
2018-05-24T06:11:33.305Z,84.95
2018-05-24T06:12:32.943Z,84.59
2018-05-24T06:13:33.348Z,84.41
2018-05-24T06:14:33.363Z,84.95
2018-05-24T06:15:33.574Z,85.25
2018-05-24T06:16:33.435Z,84.55
2018-05-24T06:17:33.285Z,84.34
2018-05-24T06:18:33.514Z,84.3
2018-05-24T06:19:33.297Z,84.23
2018-05-24T06:20:33.351Z,84.59
2018-05-24T06:21:33.667Z,84.82
2018-05-24T06:22:33.271Z,84.36
2018-05-24T06:23:33.330Z,84.7
2018-05-24T06:24:33.453Z,84.45
2018-05-24T06:25:33.349Z,84.21
2018-05-24T06:26:33.428Z,84.19
2018-05-24T06:27:33.337Z,84.16
2018-05-24T06:28:34.102Z,84.05
2018-05-24T06:29:33.332Z,84.05
2018-05-24T06:30:33.323Z,84.27
2018-05-24T06:31:33.286Z,84.34
2018-05-24T06:32:33.349Z,84.38
2018-05-24T06:33:33.479Z,84.23
2018-05-24T06:34:33.387Z,84.5
2018-05-24T06:35:33.305Z,84.75
2018-05-24T06:36:33.418Z,84.43
2018-05-24T06:37:33.434Z,84.25
2018-05-24T06:38:33.432Z,84.22
2018-05-24T06:39:33.444Z,84.64
2018-05-24T06:40:33.860Z,84.5
2018-05-24T06:41:33.359Z,84.42
2018-05-24T06:42:33.358Z,84.75
2018-05-24T06:43:33.416Z,84.79
2018-05-24T06:44:33.245Z,84.42
2018-05-24T06:45:33.325Z,84.47
2018-05-24T06:46:33.856Z,84.52
2018-05-24T06:47:33.498Z,84.67
2018-05-24T06:48:33.381Z,84.55
2018-05-24T06:49:33.259Z,84.62
2018-05-24T06:50:33.320Z,84.63
2018-05-24T06:51:33.340Z,84.75
2018-05-24T06:52:33.343Z,84.8
2018-05-24T06:53:33.632Z,84.55
2018-05-24T06:54:32.611Z,84.72
2018-05-24T06:55:32.696Z,84.4
2018-05-24T06:56:32.584Z,84.28
2018-05-24T06:57:32.595Z,84.86
2018-05-24T06:58:32.653Z,84.37
2018-05-24T06:59:32.594Z,84.63
2018-05-24T07:00:32.601Z,84.36
2018-05-24T07:01:32.628Z,84.55
2018-05-24T07:02:32.591Z,84.12
2018-05-24T07:03:32.632Z,84.26
2018-05-24T07:04:32.593Z,84.05
2018-05-24T07:05:32.597Z,84.32
2018-05-24T07:06:32.582Z,84.16
2018-05-24T07:07:32.589Z,84.22
2018-05-24T07:08:32.619Z,83.95
2018-05-24T07:09:32.589Z,84
2018-05-24T07:10:32.625Z,84.29
2018-05-24T07:11:32.588Z,84.11
2018-05-24T07:12:32.607Z,83.86
2018-05-24T07:13:32.601Z,84.08
2018-05-24T07:14:32.599Z,84.31
2018-05-24T07:15:32.684Z,84.06
2018-05-24T07:16:32.598Z,84.22
2018-05-24T07:17:32.591Z,84.32
2018-05-24T07:18:32.785Z,84.43
2018-05-24T07:19:32.595Z,84.07
2018-05-24T07:20:32.594Z,84.02
2018-05-24T07:21:32.596Z,83.87
2018-05-24T07:22:32.592Z,84.17
2018-05-24T07:23:32.597Z,83.97
2018-05-24T07:24:33.535Z,83.72
2018-05-24T07:25:32.597Z,84.01
2018-05-24T07:26:32.613Z,83.84
2018-05-24T07:27:32.596Z,83.69
2018-05-24T07:28:32.601Z,83.59
2018-05-24T07:29:32.602Z,83.7
2018-05-24T07:30:32.616Z,83.56
2018-05-24T07:31:32.599Z,83.66
2018-05-24T07:32:32.650Z,83.49
2018-05-24T07:33:32.597Z,83.55
2018-05-24T07:34:32.591Z,83.76
2018-05-24T07:35:32.591Z,83.5
2018-05-24T07:36:32.614Z,83.5
2018-05-24T07:37:32.613Z,83.57
2018-05-24T07:38:32.599Z,83.51
2018-05-24T07:39:32.625Z,83.5
2018-05-24T07:40:32.605Z,83.46
2018-05-24T07:41:32.622Z,83.27
2018-05-24T07:42:32.617Z,83.18
2018-05-24T07:43:33.659Z,83.35
2018-05-24T07:44:32.619Z,83.47
2018-05-24T07:45:32.636Z,83.26
2018-05-24T07:46:32.618Z,83.36
2018-05-24T07:47:32.663Z,83.39
2018-05-24T07:48:32.673Z,83.13
2018-05-24T07:49:32.746Z,82.99
2018-05-24T07:50:32.649Z,83.35
2018-05-24T07:51:32.621Z,84.07
2018-05-24T07:52:32.765Z,83.41
2018-05-24T07:53:32.777Z,83.25
2018-05-24T07:54:33.393Z,83
2018-05-24T07:55:33.507Z,82.93
2018-05-24T07:56:33.359Z,82.8
2018-05-24T07:57:33.341Z,82.73
2018-05-24T07:58:33.382Z,82.48
2018-05-24T07:59:33.386Z,82.67
2018-05-24T08:00:33.336Z,82.36
2018-05-24T08:01:33.605Z,82.41
2018-05-24T08:02:33.387Z,82.53
2018-05-24T08:03:33.668Z,82.44
2018-05-24T08:04:33.465Z,82.38
2018-05-24T08:05:33.353Z,82.47
2018-05-24T08:06:33.277Z,82.23
2018-05-24T08:07:33.276Z,82.19
2018-05-24T08:08:33.698Z,82.23
2018-05-24T08:09:33.345Z,82.05
2018-05-24T08:10:33.364Z,82.06
2018-05-24T08:11:33.414Z,82.13
2018-05-24T08:12:33.436Z,82.07
2018-05-24T08:13:33.396Z,81.63
2018-05-24T08:14:33.406Z,81.83
2018-05-24T08:15:33.357Z,81.86
2018-05-24T08:16:33.354Z,81.83
2018-05-24T08:17:33.358Z,81.69
2018-05-24T08:18:33.387Z,81.58
2018-05-24T08:19:33.528Z,81.28
2018-05-24T08:20:33.414Z,81.2
2018-05-24T08:21:33.403Z,81.24
2018-05-24T08:22:33.857Z,81.83
2018-05-24T08:23:33.376Z,81.61
2018-05-24T08:24:33.389Z,81.71
2018-05-24T08:25:33.451Z,81.51
2018-05-24T08:26:33.592Z,81.45
2018-05-24T08:27:33.404Z,81.7
2018-05-24T08:28:33.422Z,81.61
2018-05-24T08:29:33.467Z,81.62
2018-05-24T08:30:33.382Z,81.46
2018-05-24T08:31:33.401Z,81.19
2018-05-24T08:32:33.768Z,81.33
2018-05-24T08:33:33.395Z,81.02
2018-05-24T08:34:33.376Z,81.03
2018-05-24T08:35:33.383Z,81.17
2018-05-24T08:36:33.394Z,81.17
2018-05-24T08:37:33.371Z,80.99
2018-05-24T08:38:33.391Z,81.64
2018-05-24T08:39:33.345Z,81.12
2018-05-24T08:40:33.720Z,80.62
2018-05-24T08:41:33.339Z,80.98
2018-05-24T08:42:33.370Z,81.11
2018-05-24T08:43:33.441Z,80.68
2018-05-24T08:44:33.391Z,80.33
2018-05-24T08:45:33.470Z,79.83
2018-05-24T08:46:33.471Z,80.35
2018-05-24T08:47:33.461Z,80.92
2018-05-24T08:48:33.496Z,80.28
2018-05-24T08:49:33.374Z,80.42
2018-05-24T08:50:33.388Z,79.67
2018-05-24T08:51:33.425Z,78.93
2018-05-24T08:52:33.360Z,79.14
2018-05-24T08:53:33.402Z,79.77
2018-05-24T08:54:32.648Z,79.49
2018-05-24T08:55:32.690Z,79.04
2018-05-24T08:56:32.682Z,79.46
2018-05-24T08:57:32.627Z,78.14
2018-05-24T08:58:32.726Z,77.12
2018-05-24T08:59:32.656Z,76.82
2018-05-24T09:00:32.647Z,77.81
2018-05-24T09:01:33.336Z,77.73
2018-05-24T09:02:32.693Z,78.07
2018-05-24T09:03:32.672Z,77.87
2018-05-24T09:04:32.696Z,78.28
2018-05-24T09:05:32.734Z,78.57
2018-05-24T09:06:32.668Z,78.35
2018-05-24T09:07:32.679Z,77.69
2018-05-24T09:08:32.676Z,77.88
2018-05-24T09:09:32.695Z,78.19
2018-05-24T09:10:32.693Z,78.39
2018-05-24T09:11:33.015Z,77.62
2018-05-24T09:12:32.677Z,77.23
2018-05-24T09:13:32.639Z,76.36
2018-05-24T09:14:32.735Z,77.04
2018-05-24T09:15:33.035Z,77.55
2018-05-24T09:16:32.671Z,77.49
2018-05-24T09:17:32.677Z,77.26
2018-05-24T09:18:32.665Z,77.27
2018-05-24T09:19:32.751Z,77.06
2018-05-24T09:20:32.869Z,76.91
2018-05-24T09:21:32.833Z,77.08
2018-05-24T09:22:32.686Z,77.79
2018-05-24T09:23:32.681Z,77.85
2018-05-24T09:24:32.759Z,77.91
2018-05-24T09:25:32.668Z,77.16
2018-05-24T09:26:32.645Z,77.75
2018-05-24T09:27:32.647Z,77.77
2018-05-24T09:28:32.683Z,77.44
2018-05-24T09:29:32.744Z,77.59
2018-05-24T09:30:32.690Z,77.69
2018-05-24T09:31:32.685Z,77.39
2018-05-24T09:32:32.661Z,77.06
2018-05-24T09:33:32.666Z,76.64
2018-05-24T09:34:32.700Z,76.85
2018-05-24T09:35:32.711Z,76.62
2018-05-24T09:36:32.687Z,76.62
2018-05-24T09:37:32.695Z,76.68
2018-05-24T09:38:32.749Z,76.1
2018-05-24T09:39:32.678Z,75.99
2018-05-24T09:40:32.682Z,76.11
2018-05-24T09:41:33.022Z,76.58
2018-05-24T09:42:32.880Z,76.01
2018-05-24T09:43:32.714Z,76.61
2018-05-24T09:44:32.668Z,76.42
2018-05-24T09:45:32.676Z,76.3
2018-05-24T09:46:32.694Z,75.87
2018-05-24T09:47:32.675Z,75.97
2018-05-24T09:48:32.692Z,76.91
2018-05-24T09:49:32.673Z,76.21
2018-05-24T09:50:32.684Z,76.41
2018-05-24T09:51:32.714Z,76.8
2018-05-24T09:52:32.680Z,77.63
2018-05-24T09:53:32.694Z,76.56
2018-05-24T09:54:32.693Z,77.06
2018-05-24T09:55:32.912Z,77
2018-05-24T09:56:32.715Z,77.1
2018-05-24T09:57:32.789Z,77
2018-05-24T09:58:32.723Z,77.13
2018-05-24T09:59:32.669Z,77.09
2018-05-24T10:00:32.680Z,76.76
2018-05-24T10:01:32.684Z,77.05
2018-05-24T10:02:32.682Z,76.88
2018-05-24T10:03:32.669Z,77.26
2018-05-24T10:04:32.988Z,76.68
2018-05-24T10:05:32.710Z,76.43
2018-05-24T10:06:32.689Z,77.01
2018-05-24T10:07:32.696Z,76.32
2018-05-24T10:08:33.494Z,76.28
2018-05-24T10:09:32.681Z,76.48
2018-05-24T10:10:33.131Z,76.26
2018-05-24T10:11:32.928Z,75.69
2018-05-24T10:12:32.743Z,75.37
2018-05-24T10:13:32.772Z,75.53
2018-05-24T10:14:32.722Z,75.99
2018-05-24T10:15:32.707Z,76.44
2018-05-24T10:16:33.421Z,76.27
2018-05-24T10:17:32.695Z,76.48
2018-05-24T10:18:32.740Z,76.14
2018-05-24T10:19:32.677Z,75.32
2018-05-24T10:20:32.681Z,75.54
2018-05-24T10:21:32.689Z,75.01
2018-05-24T10:22:32.718Z,75.5
2018-05-24T10:23:33.224Z,75.38
2018-05-24T10:24:32.759Z,75.4
2018-05-24T10:25:32.720Z,75.64
2018-05-24T10:26:32.718Z,76.04
2018-05-24T10:27:32.702Z,76.11
2018-05-24T10:28:33.603Z,76.32
2018-05-24T10:29:32.750Z,76.11
2018-05-24T10:30:32.798Z,75.6
2018-05-24T10:31:32.724Z,75.31
2018-05-24T10:32:32.731Z,75.21
2018-05-24T10:33:32.718Z,75.05
2018-05-24T10:34:32.780Z,75.03
2018-05-24T10:35:32.758Z,74.99
2018-05-24T10:36:32.722Z,74.67
2018-05-24T10:37:34.970Z,74.66
2018-05-24T10:38:32.812Z,74.38
2018-05-24T10:39:33.000Z,74.96
2018-05-24T10:40:34.914Z,74.86
2018-05-24T10:41:32.722Z,74.42
2018-05-24T10:42:32.709Z,74.24
2018-05-24T10:43:35.312Z,74.7
2018-05-24T10:44:32.745Z,74.02
2018-05-24T10:45:32.711Z,74.1
2018-05-24T10:46:32.726Z,73.46
2018-05-24T10:47:32.744Z,73.63
2018-05-24T10:48:32.735Z,72.77
2018-05-24T10:49:32.723Z,72.82
2018-05-24T10:50:32.756Z,73.94
2018-05-24T10:51:32.794Z,74.14
2018-05-24T10:52:32.724Z,73.57
2018-05-24T10:53:32.903Z,72.5
2018-05-24T10:54:32.773Z,73.25
2018-05-24T10:55:32.723Z,73.58
2018-05-24T10:56:32.795Z,73.05
2018-05-24T10:57:32.823Z,73.06
2018-05-24T10:58:32.918Z,74.02
2018-05-24T10:59:33.256Z,74.04
2018-05-24T11:00:32.725Z,72.65
2018-05-24T11:01:32.728Z,72.67
2018-05-24T11:02:32.728Z,71.92
2018-05-24T11:03:32.850Z,72.01
2018-05-24T11:04:32.715Z,72.61
2018-05-24T11:05:32.736Z,72.9
2018-05-24T11:06:32.891Z,71.77
2018-05-24T11:07:32.818Z,72.02
2018-05-24T11:08:32.715Z,71.53
2018-05-24T11:09:32.885Z,71.12
2018-05-24T11:10:32.899Z,70.59
2018-05-24T11:11:33.000Z,71.39
2018-05-24T11:12:32.812Z,70.72
2018-05-24T11:13:32.739Z,71.08
2018-05-24T11:14:32.748Z,70.61
2018-05-24T11:15:32.932Z,69.93
2018-05-24T11:16:32.822Z,69.02
2018-05-24T11:17:32.737Z,69.28
2018-05-24T11:18:32.837Z,68.84
2018-05-24T11:19:32.930Z,68.08
2018-05-24T11:20:32.961Z,69.14
2018-05-24T11:21:32.942Z,67.61
2018-05-24T11:22:32.875Z,67.42
2018-05-24T11:23:32.879Z,68.14
2018-05-24T11:24:32.739Z,69.04
2018-05-24T11:25:32.808Z,68.8
2018-05-24T11:26:32.772Z,68.29
2018-05-24T11:27:32.770Z,67.65
2018-05-24T11:28:32.773Z,67.62
2018-05-24T11:29:32.934Z,67.74
2018-05-24T11:30:32.764Z,67.89
2018-05-24T11:31:32.839Z,69.85
2018-05-24T11:32:32.812Z,69.64
2018-05-24T11:33:32.849Z,69.13
2018-05-24T11:34:32.961Z,69.65
2018-05-24T11:35:32.872Z,67.16
2018-05-24T11:36:32.892Z,67.68
2018-05-24T11:37:32.891Z,68.06
2018-05-24T11:38:32.989Z,68.65
2018-05-24T11:39:32.814Z,68.86
2018-05-24T11:40:32.799Z,68
2018-05-24T11:41:32.897Z,68.01
2018-05-24T11:42:32.923Z,68.08
2018-05-24T11:43:32.925Z,67.77
2018-05-24T11:44:32.927Z,67.01
2018-05-24T11:45:32.935Z,66.42
2018-05-24T11:46:32.799Z,66
2018-05-24T11:47:32.824Z,66.4
2018-05-24T11:48:32.775Z,66.18
2018-05-24T11:49:32.758Z,66.99
2018-05-24T11:50:32.775Z,67.16
2018-05-24T11:51:32.873Z,67.55
2018-05-24T11:52:32.760Z,67.88
2018-05-24T11:53:32.888Z,67.92
2018-05-24T11:54:32.773Z,67.74
2018-05-24T11:55:32.901Z,68.26
2018-05-24T11:56:32.908Z,68.04
2018-05-24T11:57:32.772Z,67.61
2018-05-24T11:58:32.767Z,67.99
2018-05-24T11:59:32.929Z,68.43
2018-05-24T12:00:32.881Z,67.75
2018-05-24T12:01:32.773Z,68.1
2018-05-24T12:02:32.747Z,67.88
2018-05-24T12:03:32.819Z,67.7
2018-05-24T12:04:32.790Z,66.98
2018-05-24T12:05:32.874Z,67.06
2018-05-24T12:06:32.764Z,67.99
2018-05-24T12:07:32.769Z,67.89
2018-05-24T12:08:32.775Z,68.02
2018-05-24T12:09:32.798Z,68.32
2018-05-24T12:10:32.763Z,68.31
2018-05-24T12:11:32.913Z,68.14
2018-05-24T12:12:32.781Z,67.34
2018-05-24T12:13:32.784Z,68.16
2018-05-24T12:14:32.785Z,68.37
2018-05-24T12:15:32.765Z,68.04
2018-05-24T12:16:32.775Z,68.27
2018-05-24T12:17:32.851Z,67.65
2018-05-24T12:18:32.791Z,66.9
2018-05-24T12:19:32.797Z,66.09
2018-05-24T12:20:32.790Z,65.79
2018-05-24T12:21:32.805Z,66.57
2018-05-24T12:22:32.784Z,66.78
2018-05-24T12:23:32.918Z,66.86
2018-05-24T12:24:32.797Z,67.26
2018-05-24T12:25:32.911Z,67.24
2018-05-24T12:26:32.825Z,66.73
2018-05-24T12:27:32.973Z,66.32
2018-05-24T12:28:32.831Z,67.41
2018-05-24T12:29:32.803Z,67.79
2018-05-24T12:30:32.796Z,67.69
2018-05-24T12:31:32.781Z,67.53
2018-05-24T12:32:32.958Z,66.75
2018-05-24T12:33:32.806Z,67.12
2018-05-24T12:34:32.803Z,67.25
2018-05-24T12:35:33.616Z,67.68
2018-05-24T12:36:32.944Z,67.19
2018-05-24T12:37:32.859Z,66.9
2018-05-24T12:38:33.005Z,66.33
2018-05-24T12:39:32.778Z,65.53
2018-05-24T12:40:32.793Z,66.15
2018-05-24T12:41:33.398Z,66.59
2018-05-24T12:42:32.835Z,66.43
2018-05-24T12:43:32.779Z,65.68
2018-05-24T12:44:32.968Z,65.71
2018-05-24T12:45:32.838Z,65.4
2018-05-24T12:46:32.862Z,64.67
2018-05-24T12:47:32.792Z,64.81
2018-05-24T12:48:32.824Z,66.14
2018-05-24T12:49:33.082Z,65.52
2018-05-24T12:50:32.868Z,64.18
2018-05-24T12:51:32.847Z,65.01
2018-05-24T12:52:32.944Z,64.88
2018-05-24T12:53:33.919Z,63.93
2018-05-24T12:54:32.806Z,64.37
2018-05-24T12:55:32.908Z,64.16